sensor_id;sensor_type;location;lat;lon;timestamp;pressure;altitude;pressure_sealevel;temperature;humidity
65013;BME280;51715;39.432;-77.518;2022-11-25T00:01:19;100331.07;;;11.26;27.01
65013;BME280;51715;39.432;-77.518;2022-11-25T00:03:49;100330.62;;;11.29;26.59
65013;BME280;51715;39.432;-77.518;2022-11-25T00:06:20;100339.38;;;10.34;27.79
65013;BME280;51715;39.432;-77.518;2022-11-25T00:08:52;100343.28;;;10.67;27.33
65013;BME280;51715;39.432;-77.518;2022-11-25T00:11:21;100349.21;;;10.96;27.84
65013;BME280;51715;39.432;-77.518;2022-11-25T00:13:50;100345.94;;;10.84;27.53
65013;BME280;51715;39.432;-77.518;2022-11-25T00:16:21;100337.32;;;11.08;27.50
65013;BME280;51715;39.432;-77.518;2022-11-25T00:18:52;100329.38;;;11.36;26.95
65013;BME280;51715;39.432;-77.518;2022-11-25T00:21:23;100330.28;;;11.45;26.82
65013;BME280;51715;39.432;-77.518;2022-11-25T00:23:52;100328.78;;;11.53;26.97
65013;BME280;51715;39.432;-77.518;2022-11-25T00:26:22;100324.33;;;11.66;27.12
65013;BME280;51715;39.432;-77.518;2022-11-25T00:28:52;100320.62;;;11.87;26.34
65013;BME280;51715;39.432;-77.518;2022-11-25T00:31:23;100311.37;;;11.94;26.15
65013;BME280;51715;39.432;-77.518;2022-11-25T00:33:53;100309.75;;;12.07;26.13
65013;BME280;51715;39.432;-77.518;2022-11-25T00:36:23;100313.24;;;12.69;25.69
65013;BME280;51715;39.432;-77.518;2022-11-25T00:38:53;100308.74;;;12.63;25.03
65013;BME280;51715;39.432;-77.518;2022-11-25T00:41:23;100302.16;;;12.78;25.06
65013;BME280;51715;39.432;-77.518;2022-11-25T00:43:52;100302.35;;;12.78;26.18
65013;BME280;51715;39.432;-77.518;2022-11-25T00:46:21;100299.47;;;12.72;25.55
65013;BME280;51715;39.432;-77.518;2022-11-25T00:48:49;100296.57;;;12.55;25.24
65013;BME280;51715;39.432;-77.518;2022-11-25T00:51:18;100294.31;;;13.02;24.99
65013;BME280;51715;39.432;-77.518;2022-11-25T00:53:46;100291.96;;;12.81;25.03
65013;BME280;51715;39.432;-77.518;2022-11-25T00:56:15;100296.58;;;12.99;24.78
65013;BME280;51715;39.432;-77.518;2022-11-25T00:58:44;100289.07;;;12.95;25.58
65013;BME280;51715;39.432;-77.518;2022-11-25T01:01:13;100282.71;;;12.61;25.64
65013;BME280;51715;39.432;-77.518;2022-11-25T01:03:41;100286.72;;;12.70;25.66
65013;BME280;51715;39.432;-77.518;2022-11-25T01:06:10;100289.26;;;12.63;26.07
65013;BME280;51715;39.432;-77.518;2022-11-25T01:08:38;100282.21;;;12.86;26.03
65013;BME280;51715;39.432;-77.518;2022-11-25T01:11:09;100275.32;;;12.73;26.18
65013;BME280;51715;39.432;-77.518;2022-11-25T01:13:37;100271.18;;;12.90;26.04
65013;BME280;51715;39.432;-77.518;2022-11-25T01:16:07;100271.94;;;12.91;26.47
65013;BME280;51715;39.432;-77.518;2022-11-25T01:18:36;100265.46;;;12.76;26.03
65013;BME280;51715;39.432;-77.518;2022-11-25T01:21:07;100263.03;;;12.22;27.06
65013;BME280;51715;39.432;-77.518;2022-11-25T01:23:35;100255.48;;;12.47;26.48
65013;BME280;51715;39.432;-77.518;2022-11-25T01:26:05;100253.07;;;12.65;26.35
65013;BME280;51715;39.432;-77.518;2022-11-25T01:28:33;100251.55;;;12.68;26.51
65013;BME280;51715;39.432;-77.518;2022-11-25T01:31:04;100247.12;;;12.61;26.18
65013;BME280;51715;39.432;-77.518;2022-11-25T01:33:33;100250.94;;;12.66;26.16
65013;BME280;51715;39.432;-77.518;2022-11-25T01:36:02;100249.92;;;12.67;26.15
65013;BME280;51715;39.432;-77.518;2022-11-25T01:38:32;100249.05;;;12.70;26.16
65013;BME280;51715;39.432;-77.518;2022-11-25T01:41:02;100247.51;;;12.84;26.15
65013;BME280;51715;39.432;-77.518;2022-11-25T01:43:31;100240.52;;;12.89;26.19
65013;BME280;51715;39.432;-77.518;2022-11-25T01:46:06;100233.09;;;12.55;26.03
65013;BME280;51715;39.432;-77.518;2022-11-25T01:48:40;100225.90;;;12.91;25.79
65013;BME280;51715;39.432;-77.518;2022-11-25T01:51:17;100227.34;;;13.05;25.95
65013;BME280;51715;39.432;-77.518;2022-11-25T01:53:48;100225.88;;;12.74;25.95
65013;BME280;51715;39.432;-77.518;2022-11-25T01:56:18;100220.27;;;12.53;25.79
65013;BME280;51715;39.432;-77.518;2022-11-25T01:58:48;100214.19;;;12.69;26.01
65013;BME280;51715;39.432;-77.518;2022-11-25T02:01:17;100218.28;;;12.57;26.16
65013;BME280;51715;39.432;-77.518;2022-11-25T02:03:48;100220.84;;;12.65;26.23
65013;BME280;51715;39.432;-77.518;2022-11-25T02:06:23;100222.97;;;12.38;26.20
65013;BME280;51715;39.432;-77.518;2022-11-25T02:08:54;100220.80;;;12.64;26.39
65013;BME280;51715;39.432;-77.518;2022-11-25T02:11:25;100215.31;;;12.23;26.95
65013;BME280;51715;39.432;-77.518;2022-11-25T02:13:55;100206.31;;;12.18;27.33
65013;BME280;51715;39.432;-77.518;2022-11-25T02:16:25;100200.51;;;11.71;27.81
65013;BME280;51715;39.432;-77.518;2022-11-25T02:18:53;100198.19;;;11.55;27.98
65013;BME280;51715;39.432;-77.518;2022-11-25T02:21:25;100193.81;;;11.41;28.41
65013;BME280;51715;39.432;-77.518;2022-11-25T02:24:01;100188.32;;;11.21;28.20
65013;BME280;51715;39.432;-77.518;2022-11-25T02:26:31;100184.03;;;11.58;28.60
65013;BME280;51715;39.432;-77.518;2022-11-25T02:28:59;100183.70;;;11.19;28.82
65013;BME280;51715;39.432;-77.518;2022-11-25T02:31:27;100182.54;;;11.25;29.10
65013;BME280;51715;39.432;-77.518;2022-11-25T02:33:56;100173.47;;;10.92;29.69
65013;BME280;51715;39.432;-77.518;2022-11-25T02:36:24;100166.26;;;10.86;29.31
65013;BME280;51715;39.432;-77.518;2022-11-25T02:38:55;100164.59;;;10.73;29.71
65013;BME280;51715;39.432;-77.518;2022-11-25T02:41:27;100158.81;;;10.62;29.55
65013;BME280;51715;39.432;-77.518;2022-11-25T02:43:56;100148.98;;;10.45;29.88
65013;BME280;51715;39.432;-77.518;2022-11-25T02:46:27;100152.17;;;10.28;30.52
65013;BME280;51715;39.432;-77.518;2022-11-25T02:48:57;100155.86;;;10.15;30.55
65013;BME280;51715;39.432;-77.518;2022-11-25T02:51:29;100155.36;;;10.33;30.29
65013;BME280;51715;39.432;-77.518;2022-11-25T02:53:58;100152.01;;;10.16;30.78
65013;BME280;51715;39.432;-77.518;2022-11-25T02:56:29;100152.74;;;9.92;30.59
65013;BME280;51715;39.432;-77.518;2022-11-25T02:58:58;100148.58;;;9.90;31.35
65013;BME280;51715;39.432;-77.518;2022-11-25T03:01:27;100144.79;;;9.72;30.92
65013;BME280;51715;39.432;-77.518;2022-11-25T03:03:55;100142.08;;;9.85;31.57
65013;BME280;51715;39.432;-77.518;2022-11-25T03:06:24;100134.73;;;9.59;32.07
65013;BME280;51715;39.432;-77.518;2022-11-25T03:08:52;100125.98;;;9.15;32.52
65013;BME280;51715;39.432;-77.518;2022-11-25T03:11:21;100120.63;;;9.05;32.69
65013;BME280;51715;39.432;-77.518;2022-11-25T03:13:48;100116.45;;;9.19;33.14
65013;BME280;51715;39.432;-77.518;2022-11-25T03:16:16;100108.44;;;9.15;33.17
65013;BME280;51715;39.432;-77.518;2022-11-25T03:18:44;100106.09;;;9.20;32.89
65013;BME280;51715;39.432;-77.518;2022-11-25T03:21:12;100109.69;;;9.28;32.39
65013;BME280;51715;39.432;-77.518;2022-11-25T03:23:45;100111.95;;;9.21;32.52
65013;BME280;51715;39.432;-77.518;2022-11-25T03:26:14;100109.29;;;9.04;32.87
65013;BME280;51715;39.432;-77.518;2022-11-25T03:28:43;100102.25;;;8.92;33.09
65013;BME280;51715;39.432;-77.518;2022-11-25T03:31:11;100103.39;;;8.89;33.25
65013;BME280;51715;39.432;-77.518;2022-11-25T03:33:40;100107.77;;;8.64;33.43
65013;BME280;51715;39.432;-77.518;2022-11-25T03:36:09;100107.96;;;8.64;33.15
65013;BME280;51715;39.432;-77.518;2022-11-25T03:38:38;100101.38;;;8.53;33.95
65013;BME280;51715;39.432;-77.518;2022-11-25T03:41:06;100101.94;;;8.64;33.58
65013;BME280;51715;39.432;-77.518;2022-11-25T03:43:35;100105.47;;;8.66;33.57
65013;BME280;51715;39.432;-77.518;2022-11-25T03:46:03;100107.70;;;8.91;33.45
65013;BME280;51715;39.432;-77.518;2022-11-25T03:48:31;100114.53;;;8.87;33.87
65013;BME280;51715;39.432;-77.518;2022-11-25T03:51:00;100121.65;;;8.81;33.53
65013;BME280;51715;39.432;-77.518;2022-11-25T03:53:27;100127.19;;;8.76;33.67
65013;BME280;51715;39.432;-77.518;2022-11-25T03:55:56;100126.08;;;8.72;33.86
65013;BME280;51715;39.432;-77.518;2022-11-25T03:58:25;100127.22;;;8.67;34.23
65013;BME280;51715;39.432;-77.518;2022-11-25T04:00:53;100117.56;;;8.19;34.62
65013;BME280;51715;39.432;-77.518;2022-11-25T04:03:21;100112.34;;;8.34;34.83
65013;BME280;51715;39.432;-77.518;2022-11-25T04:05:50;100114.18;;;8.12;35.57
65013;BME280;51715;39.432;-77.518;2022-11-25T04:08:18;100111.32;;;7.90;35.46
65013;BME280;51715;39.432;-77.518;2022-11-25T04:10:47;100109.50;;;7.69;36.03
65013;BME280;51715;39.432;-77.518;2022-11-25T04:13:16;100110.41;;;7.75;36.02
65013;BME280;51715;39.432;-77.518;2022-11-25T04:15:46;100104.30;;;7.85;35.74
65013;BME280;51715;39.432;-77.518;2022-11-25T04:18:15;100095.98;;;7.93;35.62
65013;BME280;51715;39.432;-77.518;2022-11-25T04:20:45;100094.99;;;8.05;35.16
65013;BME280;51715;39.432;-77.518;2022-11-25T04:23:13;100092.07;;;8.22;35.17
65013;BME280;51715;39.432;-77.518;2022-11-25T04:25:42;100088.55;;;8.27;35.34
65013;BME280;51715;39.432;-77.518;2022-11-25T04:28:10;100093.07;;;8.09;35.20
65013;BME280;51715;39.432;-77.518;2022-11-25T04:30:39;100086.23;;;8.01;35.35
65013;BME280;51715;39.432;-77.518;2022-11-25T04:33:07;100088.18;;;8.38;35.92
65013;BME280;51715;39.432;-77.518;2022-11-25T04:35:36;100087.97;;;7.88;35.96
65013;BME280;51715;39.432;-77.518;2022-11-25T04:38:04;100077.90;;;7.86;36.08
65013;BME280;51715;39.432;-77.518;2022-11-25T04:40:33;100078.92;;;7.90;36.45
65013;BME280;51715;39.432;-77.518;2022-11-25T04:43:01;100075.73;;;7.86;36.33
65013;BME280;51715;39.432;-77.518;2022-11-25T04:45:29;100076.56;;;7.87;36.35
65013;BME280;51715;39.432;-77.518;2022-11-25T04:47:57;100074.83;;;7.89;36.37
65013;BME280;51715;39.432;-77.518;2022-11-25T04:50:25;100075.91;;;7.88;36.50
65013;BME280;51715;39.432;-77.518;2022-11-25T04:52:53;100072.02;;;7.95;36.25
65013;BME280;51715;39.432;-77.518;2022-11-25T04:55:22;100066.16;;;8.18;36.19
65013;BME280;51715;39.432;-77.518;2022-11-25T04:57:50;100063.17;;;8.00;36.07
65013;BME280;51715;39.432;-77.518;2022-11-25T05:03:55;100051.75;;;7.87;36.13
65013;BME280;51715;39.432;-77.518;2022-11-25T05:06:24;100049.01;;;7.79;36.34
65013;BME280;51715;39.432;-77.518;2022-11-25T05:08:53;100041.52;;;8.14;35.96
65013;BME280;51715;39.432;-77.518;2022-11-25T05:11:23;100037.45;;;8.22;35.62
65013;BME280;51715;39.432;-77.518;2022-11-25T05:13:53;100035.60;;;8.25;35.84
65013;BME280;51715;39.432;-77.518;2022-11-25T05:16:21;100019.03;;;8.26;36.17
65013;BME280;51715;39.432;-77.518;2022-11-25T05:18:50;100004.21;;;8.06;36.62
65013;BME280;51715;39.432;-77.518;2022-11-25T05:21:18;99994.78;;;7.96;37.17
65013;BME280;51715;39.432;-77.518;2022-11-25T05:23:47;99987.36;;;7.83;37.53
65013;BME280;51715;39.432;-77.518;2022-11-25T05:26:15;99986.60;;;7.78;37.44
65013;BME280;51715;39.432;-77.518;2022-11-25T05:28:43;99987.29;;;7.79;37.02
65013;BME280;51715;39.432;-77.518;2022-11-25T05:31:11;99987.23;;;7.81;36.92
65013;BME280;51715;39.432;-77.518;2022-11-25T06:08:01;99927.73;;;7.73;38.64
65013;BME280;51715;39.432;-77.518;2022-11-25T06:10:28;99925.65;;;6.65;37.48
65013;BME280;51715;39.432;-77.518;2022-11-25T06:12:55;99917.07;;;7.15;35.71
65013;BME280;51715;39.432;-77.518;2022-11-25T06:15:22;99913.97;;;8.01;34.57
65013;BME280;51715;39.432;-77.518;2022-11-25T06:17:50;99914.41;;;8.28;34.52
65013;BME280;51715;39.432;-77.518;2022-11-25T06:20:18;99905.31;;;9.56;34.42
65013;BME280;51715;39.432;-77.518;2022-11-25T06:22:46;99893.90;;;9.53;35.12
65013;BME280;51715;39.432;-77.518;2022-11-25T06:25:15;99898.45;;;8.76;35.43
65013;BME280;51715;39.432;-77.518;2022-11-25T06:27:43;99898.08;;;9.20;35.50
65013;BME280;51715;39.432;-77.518;2022-11-25T06:30:12;99896.75;;;9.24;35.40
65013;BME280;51715;39.432;-77.518;2022-11-25T06:32:40;99898.57;;;9.02;36.03
65013;BME280;51715;39.432;-77.518;2022-11-25T06:35:09;99897.76;;;9.40;35.94
65013;BME280;51715;39.432;-77.518;2022-11-25T06:37:37;99890.13;;;9.48;35.77
65013;BME280;51715;39.432;-77.518;2022-11-25T06:40:07;99887.07;;;9.54;35.77
65013;BME280;51715;39.432;-77.518;2022-11-25T06:42:37;99882.85;;;9.34;35.61
65013;BME280;51715;39.432;-77.518;2022-11-25T06:45:06;99887.71;;;9.70;35.59
65013;BME280;51715;39.432;-77.518;2022-11-25T06:47:34;99880.27;;;9.48;35.92
65013;BME280;51715;39.432;-77.518;2022-11-25T06:50:03;99884.15;;;9.60;35.68
65013;BME280;51715;39.432;-77.518;2022-11-25T06:52:32;99887.18;;;9.63;36.00
65013;BME280;51715;39.432;-77.518;2022-11-25T06:55:00;99885.71;;;9.68;35.79
65013;BME280;51715;39.432;-77.518;2022-11-25T06:57:28;99895.00;;;9.55;35.75
65013;BME280;51715;39.432;-77.518;2022-11-25T06:59:57;99887.39;;;9.68;35.69
65013;BME280;51715;39.432;-77.518;2022-11-25T07:02:25;99875.40;;;9.40;36.80
65013;BME280;51715;39.432;-77.518;2022-11-25T07:04:52;99883.17;;;9.72;36.16
65013;BME280;51715;39.432;-77.518;2022-11-25T07:07:21;99889.99;;;9.74;35.79
65013;BME280;51715;39.432;-77.518;2022-11-25T07:09:49;99890.42;;;9.88;35.29
65013;BME280;51715;39.432;-77.518;2022-11-25T07:12:17;99874.65;;;9.73;36.52
65013;BME280;51715;39.432;-77.518;2022-11-25T07:14:48;99863.32;;;9.88;36.02
65013;BME280;51715;39.432;-77.518;2022-11-25T07:17:17;99861.16;;;10.17;35.92
65013;BME280;51715;39.432;-77.518;2022-11-25T07:19:45;99858.51;;;10.04;35.63
65013;BME280;51715;39.432;-77.518;2022-11-25T07:22:13;99850.98;;;10.16;35.28
65013;BME280;51715;39.432;-77.518;2022-11-25T07:24:42;99843.57;;;10.08;35.58
65013;BME280;51715;39.432;-77.518;2022-11-25T07:27:10;99833.55;;;10.15;35.58
65013;BME280;51715;39.432;-77.518;2022-11-25T07:29:38;99831.21;;;10.18;35.61
65013;BME280;51715;39.432;-77.518;2022-11-25T07:32:06;99829.56;;;10.27;36.18
65013;BME280;51715;39.432;-77.518;2022-11-25T07:34:34;99825.85;;;10.29;36.14
65013;BME280;51715;39.432;-77.518;2022-11-25T07:37:02;99819.97;;;10.44;35.63
65013;BME280;51715;39.432;-77.518;2022-11-25T07:39:30;99815.17;;;10.50;34.87
65013;BME280;51715;39.432;-77.518;2022-11-25T07:41:58;99820.87;;;10.38;34.78
65013;BME280;51715;39.432;-77.518;2022-11-25T07:44:27;99819.09;;;10.39;35.29
65013;BME280;51715;39.432;-77.518;2022-11-25T07:46:55;99814.26;;;10.38;35.26
65013;BME280;51715;39.432;-77.518;2022-11-25T07:49:24;99805.89;;;10.67;35.12
65013;BME280;51715;39.432;-77.518;2022-11-25T07:51:53;99811.02;;;10.48;35.38
65013;BME280;51715;39.432;-77.518;2022-11-25T07:54:22;99813.30;;;10.35;35.69
65013;BME280;51715;39.432;-77.518;2022-11-25T07:56:51;99800.38;;;10.59;36.30
65013;BME280;51715;39.432;-77.518;2022-11-25T07:59:21;99788.02;;;9.55;37.53
65013;BME280;51715;39.432;-77.518;2022-11-25T08:01:50;99780.17;;;9.69;36.69
65013;BME280;51715;39.432;-77.518;2022-11-25T08:04:19;99779.00;;;10.08;36.29
65013;BME280;51715;39.432;-77.518;2022-11-25T08:06:49;99771.10;;;9.82;36.10
65013;BME280;51715;39.432;-77.518;2022-11-25T08:09:19;99769.34;;;10.35;35.78
65013;BME280;51715;39.432;-77.518;2022-11-25T08:11:49;99757.20;;;10.57;35.53
65013;BME280;51715;39.432;-77.518;2022-11-25T08:14:19;99748.38;;;10.21;35.39
65013;BME280;51715;39.432;-77.518;2022-11-25T08:16:48;99747.47;;;10.36;35.31
65013;BME280;51715;39.432;-77.518;2022-11-25T08:19:17;99747.58;;;10.51;34.91
65013;BME280;51715;39.432;-77.518;2022-11-25T08:21:45;99752.76;;;10.62;34.71
65013;BME280;51715;39.432;-77.518;2022-11-25T08:24:15;99756.43;;;10.61;34.90
65013;BME280;51715;39.432;-77.518;2022-11-25T08:26:43;99766.16;;;10.67;34.80
65013;BME280;51715;39.432;-77.518;2022-11-25T08:29:14;99772.69;;;10.91;35.00
65013;BME280;51715;39.432;-77.518;2022-11-25T08:31:43;99778.61;;;10.67;35.20
65013;BME280;51715;39.432;-77.518;2022-11-25T08:34:17;99775.36;;;10.79;34.97
65013;BME280;51715;39.432;-77.518;2022-11-25T08:36:45;99771.57;;;10.98;34.88
65013;BME280;51715;39.432;-77.518;2022-11-25T08:39:14;99763.14;;;11.12;34.50
65013;BME280;51715;39.432;-77.518;2022-11-25T08:41:42;99758.09;;;11.10;35.05
65013;BME280;51715;39.432;-77.518;2022-11-25T08:44:11;99752.96;;;11.07;34.62
65013;BME280;51715;39.432;-77.518;2022-11-25T08:46:39;99740.77;;;10.71;34.72
65013;BME280;51715;39.432;-77.518;2022-11-25T08:49:07;99714.87;;;10.89;36.37
65013;BME280;51715;39.432;-77.518;2022-11-25T08:51:36;99712.64;;;10.88;35.82
65013;BME280;51715;39.432;-77.518;2022-11-25T08:54:06;99713.80;;;10.82;35.24
65013;BME280;51715;39.432;-77.518;2022-11-25T08:56:34;99707.77;;;10.93;34.88
65013;BME280;51715;39.432;-77.518;2022-11-25T08:59:03;99699.28;;;10.91;35.44
65013;BME280;51715;39.432;-77.518;2022-11-25T09:01:31;99703.07;;;11.08;35.15
65013;BME280;51715;39.432;-77.518;2022-11-25T09:04:00;99709.34;;;11.12;34.88
65013;BME280;51715;39.432;-77.518;2022-11-25T09:06:28;99703.67;;;11.08;35.01
65013;BME280;51715;39.432;-77.518;2022-11-25T09:08:57;99685.62;;;10.87;36.66
65013;BME280;51715;39.432;-77.518;2022-11-25T09:11:26;99679.90;;;10.52;37.34
65013;BME280;51715;39.432;-77.518;2022-11-25T09:13:55;99675.05;;;9.96;38.15
65013;BME280;51715;39.432;-77.518;2022-11-25T09:16:23;99678.19;;;10.34;38.22
65013;BME280;51715;39.432;-77.518;2022-11-25T09:18:51;99676.86;;;10.49;38.91
65013;BME280;51715;39.432;-77.518;2022-11-25T09:21:19;99665.95;;;9.80;39.75
65013;BME280;51715;39.432;-77.518;2022-11-25T09:23:50;99683.46;;;10.21;40.13
65013;BME280;51715;39.432;-77.518;2022-11-25T09:26:21;99695.36;;;10.42;38.96
65013;BME280;51715;39.432;-77.518;2022-11-25T09:28:50;99687.41;;;9.80;40.14
65013;BME280;51715;39.432;-77.518;2022-11-25T09:31:19;99684.08;;;10.16;41.17
65013;BME280;51715;39.432;-77.518;2022-11-25T09:33:48;99674.73;;;10.19;41.01
65013;BME280;51715;39.432;-77.518;2022-11-25T09:36:17;99679.47;;;10.03;41.18
65013;BME280;51715;39.432;-77.518;2022-11-25T09:38:46;99683.83;;;9.81;41.17
65013;BME280;51715;39.432;-77.518;2022-11-25T09:41:24;99689.11;;;10.26;40.88
65013;BME280;51715;39.432;-77.518;2022-11-25T09:44:01;99679.33;;;10.37;42.06
65013;BME280;51715;39.432;-77.518;2022-11-25T09:46:43;99674.27;;;9.66;43.56
65013;BME280;51715;39.432;-77.518;2022-11-25T09:49:28;99660.07;;;10.07;43.45
65013;BME280;51715;39.432;-77.518;2022-11-25T09:52:07;99651.72;;;9.01;45.17
65013;BME280;51715;39.432;-77.518;2022-11-25T09:54:43;99654.71;;;9.55;45.57
65013;BME280;51715;39.432;-77.518;2022-11-25T09:57:19;99654.64;;;9.36;44.76
65013;BME280;51715;39.432;-77.518;2022-11-25T09:59:58;99642.76;;;9.86;43.69
65013;BME280;51715;39.432;-77.518;2022-11-25T10:02:36;99644.04;;;10.00;43.87
65013;BME280;51715;39.432;-77.518;2022-11-25T10:05:11;99655.33;;;9.94;43.60
65013;BME280;51715;39.432;-77.518;2022-11-25T10:07:42;99646.05;;;9.86;44.22
65013;BME280;51715;39.432;-77.518;2022-11-25T10:10:18;99630.79;;;9.73;44.51
65013;BME280;51715;39.432;-77.518;2022-11-25T10:12:49;99627.86;;;9.41;45.26
65013;BME280;51715;39.432;-77.518;2022-11-25T10:15:24;99624.55;;;9.72;45.42
65013;BME280;51715;39.432;-77.518;2022-11-25T10:17:58;99619.63;;;9.34;46.35
65013;BME280;51715;39.432;-77.518;2022-11-25T10:20:30;99610.79;;;9.53;46.77
65013;BME280;51715;39.432;-77.518;2022-11-25T10:23:03;99601.26;;;9.41;47.16
65013;BME280;51715;39.432;-77.518;2022-11-25T10:25:40;99582.07;;;8.84;49.18
65013;BME280;51715;39.432;-77.518;2022-11-25T10:28:16;99568.64;;;9.19;47.44
65013;BME280;51715;39.432;-77.518;2022-11-25T10:30:49;99571.20;;;9.62;46.46
65013;BME280;51715;39.432;-77.518;2022-11-25T10:33:25;99565.71;;;9.92;46.00
65013;BME280;51715;39.432;-77.518;2022-11-25T10:35:59;99554.39;;;8.81;48.73
65013;BME280;51715;39.432;-77.518;2022-11-25T10:38:33;99550.79;;;8.88;47.91
65013;BME280;51715;39.432;-77.518;2022-11-25T10:41:04;99546.11;;;9.53;46.94
65013;BME280;51715;39.432;-77.518;2022-11-25T10:43:33;99554.27;;;9.76;46.67
65013;BME280;51715;39.432;-77.518;2022-11-25T10:46:10;99559.65;;;10.01;46.54
65013;BME280;51715;39.432;-77.518;2022-11-25T10:48:52;99556.14;;;10.35;45.95
65013;BME280;51715;39.432;-77.518;2022-11-25T10:51:34;99545.79;;;9.60;47.01
65013;BME280;51715;39.432;-77.518;2022-11-25T10:54:21;99544.03;;;9.86;46.61
65013;BME280;51715;39.432;-77.518;2022-11-25T10:56:52;99535.09;;;10.19;46.20
65013;BME280;51715;39.432;-77.518;2022-11-25T10:59:26;99531.02;;;10.42;45.93
65013;BME280;51715;39.432;-77.518;2022-11-25T11:02:14;99535.33;;;10.62;45.60
65013;BME280;51715;39.432;-77.518;2022-11-25T11:04:55;99526.40;;;10.30;45.44
65013;BME280;51715;39.432;-77.518;2022-11-25T11:07:25;99520.87;;;10.60;45.28
65013;BME280;51715;39.432;-77.518;2022-11-25T11:09:53;99521.31;;;10.57;45.40
65013;BME280;51715;39.432;-77.518;2022-11-25T11:12:23;99517.33;;;10.82;45.27
65013;BME280;51715;39.432;-77.518;2022-11-25T11:15:01;99518.92;;;10.41;45.47
65013;BME280;51715;39.432;-77.518;2022-11-25T11:17:40;99508.71;;;10.64;45.45
65013;BME280;51715;39.432;-77.518;2022-11-25T11:20:15;99508.30;;;10.84;45.28
65013;BME280;51715;39.432;-77.518;2022-11-25T11:22:49;99493.34;;;10.78;45.04
65013;BME280;51715;39.432;-77.518;2022-11-25T11:25:35;99490.31;;;10.46;45.60
65013;BME280;51715;39.432;-77.518;2022-11-25T11:28:24;99487.54;;;10.12;45.64
65013;BME280;51715;39.432;-77.518;2022-11-25T11:30:55;99483.04;;;10.19;45.64
65013;BME280;51715;39.432;-77.518;2022-11-25T11:33:33;99481.55;;;10.61;45.40
65013;BME280;51715;39.432;-77.518;2022-11-25T11:36:17;99486.31;;;10.66;45.28
65013;BME280;51715;39.432;-77.518;2022-11-25T11:38:53;99490.17;;;10.42;45.35
65013;BME280;51715;39.432;-77.518;2022-11-25T11:41:33;99496.39;;;10.97;45.27
65013;BME280;51715;39.432;-77.518;2022-11-25T11:44:08;99501.63;;;10.78;45.16
65013;BME280;51715;39.432;-77.518;2022-11-25T11:47:00;99501.32;;;10.51;45.32
65013;BME280;51715;39.432;-77.518;2022-11-25T11:49:52;99499.50;;;10.85;44.90
65013;BME280;51715;39.432;-77.518;2022-11-25T11:52:33;99509.79;;;10.58;45.48
65013;BME280;51715;39.432;-77.518;2022-11-25T11:55:22;99512.80;;;10.31;46.07
65013;BME280;51715;39.432;-77.518;2022-11-25T11:57:58;99510.93;;;10.56;45.79
65013;BME280;51715;39.432;-77.518;2022-11-25T12:00:30;99507.56;;;10.61;45.68
65013;BME280;51715;39.432;-77.518;2022-11-25T12:03:12;99504.96;;;10.27;45.45
65013;BME280;51715;39.432;-77.518;2022-11-25T12:05:41;99506.33;;;10.47;45.79
65013;BME280;51715;39.432;-77.518;2022-11-25T12:08:13;99504.74;;;10.35;45.68
65013;BME280;51715;39.432;-77.518;2022-11-25T12:10:46;99507.76;;;10.51;45.71
65013;BME280;51715;39.432;-77.518;2022-11-25T12:13:20;99500.50;;;10.60;45.40
65013;BME280;51715;39.432;-77.518;2022-11-25T12:15:55;99499.26;;;9.87;46.48
65013;BME280;51715;39.432;-77.518;2022-11-25T12:18:39;99494.34;;;10.15;46.07
65013;BME280;51715;39.432;-77.518;2022-11-25T12:21:25;99488.88;;;10.19;45.64
65013;BME280;51715;39.432;-77.518;2022-11-25T12:24:02;99476.93;;;10.45;45.39
65013;BME280;51715;39.432;-77.518;2022-11-25T12:26:40;99474.77;;;10.51;45.00
65013;BME280;51715;39.432;-77.518;2022-11-25T12:29:14;99478.92;;;10.37;45.24
65013;BME280;51715;39.432;-77.518;2022-11-25T12:31:51;99481.77;;;10.77;45.41
65013;BME280;51715;39.432;-77.518;2022-11-25T12:34:25;99481.74;;;10.65;45.29
65013;BME280;51715;39.432;-77.518;2022-11-25T12:37:03;99483.32;;;10.67;45.07
65013;BME280;51715;39.432;-77.518;2022-11-25T12:39:35;99477.79;;;10.72;44.69
65013;BME280;51715;39.432;-77.518;2022-11-25T12:42:14;99479.64;;;10.58;44.90
65013;BME280;51715;39.432;-77.518;2022-11-25T12:44:49;99476.15;;;10.59;44.90
65013;BME280;51715;39.432;-77.518;2022-11-25T12:47:19;99470.29;;;10.65;45.14
65013;BME280;51715;39.432;-77.518;2022-11-25T12:49:49;99467.05;;;10.91;45.17
65013;BME280;51715;39.432;-77.518;2022-11-25T12:52:35;99450.26;;;11.07;45.12
65013;BME280;51715;39.432;-77.518;2022-11-25T12:55:13;99438.76;;;10.69;45.11
65013;BME280;51715;39.432;-77.518;2022-11-25T12:58:01;99440.88;;;10.57;45.35
65013;BME280;51715;39.432;-77.518;2022-11-25T13:00:42;99431.85;;;10.64;45.19
65013;BME280;51715;39.432;-77.518;2022-11-25T13:04:35;99442.12;;;11.14;44.98
65013;BME280;51715;39.432;-77.518;2022-11-25T13:07:22;99442.51;;;11.06;45.10
65013;BME280;51715;39.432;-77.518;2022-11-25T13:10:36;99447.23;;;10.88;45.14
65013;BME280;51715;39.432;-77.518;2022-11-25T13:13:20;99438.89;;;10.86;45.16
65013;BME280;51715;39.432;-77.518;2022-11-25T13:15:51;99446.77;;;10.31;45.44
65013;BME280;51715;39.432;-77.518;2022-11-25T13:18:23;99430.66;;;9.36;48.06
65013;BME280;51715;39.432;-77.518;2022-11-25T13:20:54;99447.34;;;10.02;46.92
65013;BME280;51715;39.432;-77.518;2022-11-25T13:23:27;99433.06;;;8.60;50.74
65013;BME280;51715;39.432;-77.518;2022-11-25T13:27:01;99458.95;;;9.57;48.43
65013;BME280;51715;39.432;-77.518;2022-11-25T13:29:52;99454.76;;;9.92;48.08
65013;BME280;51715;39.432;-77.518;2022-11-25T13:32:31;99455.37;;;9.97;47.29
65013;BME280;51715;39.432;-77.518;2022-11-25T13:35:36;99452.59;;;10.07;47.21
65013;BME280;51715;39.432;-77.518;2022-11-25T13:39:15;99438.94;;;10.62;46.41
65013;BME280;51715;39.432;-77.518;2022-11-25T13:41:50;99443.72;;;10.48;46.22
65013;BME280;51715;39.432;-77.518;2022-11-25T13:44:28;99442.74;;;10.95;46.26